Airfield :
LOGIN :

Register | Disclaimer

   EN    FR    IT 

 










Legend :    VFR   Marginal VFR   IFR   Intensive IFR   Very Intensive IFR
Visi :
Ceiling :
>= 8 km
>= 3000ft
5 to 8 km
1000 to 3000 ft
1500m to 5 km
500 to 1000 ft
800 to 1500m
200 to 500 ft
< 800m
< 200 ft
Symbols :   Thunderstorms  Fog  Heavy snow  Heavy precipitations  Wind > 20 kt
SIGMETs :     Misc.  Thunderstorms  Icing  Turbulence  Mountain Waves  Volcanic Ashes






- Airport Elevation : 75 ft
- IATA code : YEO


EGDY - RNAS Yeovilton

CURRENT METAR :
  • 011220Z 03001KT 0200 FG OVC002 02/02 Q1029 NOSIG RMK RED RED

EXPIRED METARs :
  • 011150Z 06001KT 0150 FG OVC002 02/02 Q1029 NOSIG RMK RED RED
  • 011120Z 36001KT 0150 FG VV/// 02/02 Q1029 NOSIG RMK RED RED
  • 011050Z 02001KT 0150 FG OVC002 01/01 Q1030 NOSIG RMK RED RED
  • 011020Z 04001KT 0150 FG VV/// 01/01 Q1030 NOSIG RMK RED RED
  • 010950Z 33002KT 0150 FG VV/// 01/01 Q1030 NOSIG RMK RED RED

TAF TAF EGDY
Valid from the 01 at 12:00 until the 01 at 21:00 UTC


011043Z 0112/0121 VRB03KT 0200 FG BKN000
TEMPO 0112/0117 2000 BR FEW003 BKN005



MET'MAP, your aeronautical weather chart ! - Copyright ORBIFLY December 2007 - Disclaimer

ORBIFLY MET'MAP TEAM :

Programming & Development : Alexandra Zaïnal
Original concept : Baudouin d'Aumeries
Technical & hardware support : Manuel Goepfert
Assistance : Marc-Olivier Méhu




SOURCES & CREDITS :

   NOAA